TimeICT,TemperatureF,Dew PointF,Humidity,Sea Level PressureIn,VisibilityMPH,Wind Direction,Wind SpeedMPH,Gust SpeedMPH,PrecipitationIn,Events,Conditions,WindDirDegrees,DateUTC
12:00 AM,80.6,75.2,84,29.86,5.6,South,3.5,-,N/A,,Scattered Clouds,180,2012-11-05 17:00:00
12:30 AM,80.6,75.2,84,29.86,5.6,South,3.5,-,N/A,,Scattered Clouds,180,2012-11-05 17:30:00
1:00 AM,80.6,75.2,84,29.86,5.6,SSW,3.5,-,N/A,,Scattered Clouds,210,2012-11-05 18:00:00
6:00 AM,78.8,75.2,89,29.86,5.6,South,5.8,-,N/A,Thunderstorm,Thunderstorm,190,2012-11-05 23:00:00
7:00 AM,78.8,73.4,83,29.89,6.2,SSE,3.5,-,N/A,,Mostly Cloudy,150,2012-11-06 00:00:00
7:30 AM,80.6,73.4,79,29.89,6.2,South,2.3,-,N/A,,Mostly Cloudy,180,2012-11-06 00:30:00
8:00 AM,82.4,73.4,74,29.92,6.2,South,3.5,-,N/A,,Scattered Clouds,180,2012-11-06 01:00:00
8:30 AM,82.4,71.6,70,29.92,6.2,South,4.6,-,N/A,,Scattered Clouds,180,2012-11-06 01:30:00
9:00 AM,82.4,73.4,74,29.95,6.2,South,3.5,-,N/A,,Scattered Clouds,180,2012-11-06 02:00:00
9:30 AM,82.4,73.4,74,29.95,6.2,South,6.9,-,N/A,,Scattered Clouds,180,2012-11-06 02:30:00
10:00 AM,84.2,73.4,70,29.95,6.2,South,5.8,-,N/A,,Scattered Clouds,180,2012-11-06 03:00:00
10:30 AM,84.2,75.2,74,29.95,6.2,South,10.4,-,N/A,,Scattered Clouds,180,2012-11-06 03:30:00
11:00 AM,86.0,75.2,70,29.92,6.2,Variable,2.3,-,N/A,,Scattered Clouds,0,2012-11-06 04:00:00
11:30 AM,86.0,73.4,66,29.92,6.2,South,3.5,-,N/A,,Scattered Clouds,180,2012-11-06 04:30:00
12:00 PM,87.8,73.4,62,29.89,6.2,South,4.6,-,N/A,,Scattered Clouds,180,2012-11-06 05:00:00
12:30 PM,87.8,73.4,62,29.86,6.2,Variable,2.3,-,N/A,,Partly Cloudy,0,2012-11-06 05:30:00
1:00 PM,87.8,73.4,62,29.86,6.2,Variable,2.3,-,N/A,,Partly Cloudy,0,2012-11-06 06:00:00
1:30 PM,87.8,73.4,62,29.83,6.2,SSW,3.5,-,N/A,,Partly Cloudy,200,2012-11-06 06:30:00
2:00 PM,89.6,71.6,55,29.83,6.2,North,2.3,-,N/A,,Partly Cloudy,360,2012-11-06 07:00:00
2:30 PM,91.4,71.6,52,29.80,6.2,South,5.8,-,N/A,,Partly Cloudy,190,2012-11-06 07:30:00
3:00 PM,89.6,68.0,49,29.80,6.2,East,5.8,-,N/A,,Partly Cloudy,90,2012-11-06 08:00:00
3:30 PM,89.6,69.8,52,29.80,6.2,SSW,2.3,-,N/A,,Partly Cloudy,210,2012-11-06 08:30:00
4:00 PM,86.0,73.4,66,29.80,6.2,SSW,8.1,-,N/A,,Partly Cloudy,210,2012-11-06 09:00:00
4:30 PM,87.8,73.4,62,29.80,6.2,South,9.2,-,N/A,,Partly Cloudy,190,2012-11-06 09:30:00
5:00 PM,86.0,73.4,66,29.80,6.2,South,5.8,-,N/A,,Partly Cloudy,180,2012-11-06 10:00:00
5:30 PM,86.0,69.8,58,29.83,6.2,SSW,6.9,-,N/A,,Partly Cloudy,200,2012-11-06 10:30:00
6:00 PM,84.2,69.8,62,29.83,6.2,SSW,5.8,-,N/A,,Partly Cloudy,210,2012-11-06 11:00:00
6:30 PM,84.2,69.8,62,29.83,5.6,SSW,3.5,-,N/A,,Scattered Clouds,210,2012-11-06 11:30:00
7:00 PM,84.2,75.2,74,29.83,5.6,SSW,4.6,-,N/A,,Scattered Clouds,210,2012-11-06 12:00:00
7:30 PM,84.2,75.2,74,29.86,5.6,SW,4.6,-,N/A,,Scattered Clouds,220,2012-11-06 12:30:00
8:00 PM,84.2,75.2,74,29.86,5.6,WSW,4.6,-,N/A,,Scattered Clouds,240,2012-11-06 13:00:00
8:30 PM,84.2,75.2,74,29.86,5.6,WSW,4.6,-,N/A,,Scattered Clouds,240,2012-11-06 13:30:00
9:00 PM,84.2,75.2,74,29.86,5.6,WSW,4.6,-,N/A,,Scattered Clouds,250,2012-11-06 14:00:00
9:30 PM,82.4,75.2,79,29.86,5.6,West,4.6,-,N/A,,Scattered Clouds,260,2012-11-06 14:30:00
10:00 PM,82.4,75.2,79,29.86,5.6,West,6.9,-,N/A,,Scattered Clouds,260,2012-11-06 15:00:00
10:30 PM,82.4,75.2,79,29.86,5.6,West,6.9,-,N/A,,Scattered Clouds,280,2012-11-06 15:30:00
11:00 PM,80.6,75.2,84,29.86,5.6,West,2.3,-,N/A,,Scattered Clouds,270,2012-11-06 16:00:00
11:30 PM,80.6,75.2,84,29.86,5.6,WNW,3.5,-,N/A,,Scattered Clouds,300,2012-11-06 16:30:00